Air Navigation Services of Czech Republic  
Last data update:  15.09.2019 22:20:26 UTC Česká verze
   METEO Page displayed:  15.09.2019 22:21:15 UTC  
help
METAR EDDB 152150Z 30010KT 270V330 4800 -DZ BKN008 BKN022 15/14 Q1018 BECMG 8000 SCT015=
METAR EDDC 152150Z 23005KT CAVOK 16/07 Q1019=
METAR EDDE 152150Z 24005KT CAVOK 14/06 Q1021=
METAR EDDF 152150Z 20003KT CAVOK 15/09 Q1021 NOSIG=
METAR EDDM 152150Z VRB02KT 9999 SCT045 15/14 Q1022 NOSIG=
METAR EDDN 152150Z VRB01KT CAVOK 14/12 Q1022=
METAR EDDP 152150Z 30008KT CAVOK 19/04 Q1019 NOSIG=
METAR EDDT 152150Z 27008KT 9999 BKN038 15/13 Q1018=
METAR EDQM NIL
METAR EPBY 152200Z 28013KT CAVOK 16/11 Q1014=
METAR EPGD 152200Z 28017G27KT 9999 SCT030 14/08 Q1010=
METAR EPKK 152200Z VRB01KT CAVOK 12/10 Q1019=
METAR EPKT 152200Z 22010KT CAVOK 15/10 Q1018=
METAR EPLL 152200Z 24009KT CAVOK 15/10 Q1015=
METAR EPPO 152200Z 28009KT 9999 OVC049 17/05 Q1015=
METAR EPRZ 152200Z 23006KT CAVOK 13/08 Q1018=
METAR EPWA 152200Z 27007KT 230V290 CAVOK 18/10 Q1013 NOSIG=
METAR EPWR 152200Z 26011KT CAVOK 17/11 Q1017=
METAR LHBP 152200Z 00000KT CAVOK 12/11 Q1021 NOSIG=
METAR LHSM 152145Z AUTO 00000KT 7000 NCD 15/15 Q1021=
METAR LKBC 152200Z AUTO 07002KT CAVOK 14/12 Q1021=
METAR LKCV 152200Z 24008KT CAVOK 18/12 Q1019 NOSIG RMK BLU BLU=
METAR LKKB 152200Z 22006KT CAVOK 16/13 Q1019 RMK BLU=
METAR LKKU NIL
METAR LKKV 152200Z 26006KT CAVOK 16/10 Q1021 RMK REG QNH 1018=
METAR LKLN 152200Z AUTO VRB01KT CAVOK 15/13 Q1021=
METAR LKMT 152200Z 00000KT CAVOK 13/10 Q1020 NOSIG RMK REG QNH 1018=
METAR LKNA 152200Z VRB02KT CAVOK 15/11 Q1021 RMK BLU=
METAR LKPD 152200Z 27007KT CAVOK 19/12 Q1019 RMK BLU=
METAR LKPJ 152200Z AUTO 04003KT 360V070 CAVOK ///// Q////=
METAR LKPR 152200Z 25006KT CAVOK 16/13 Q1020 NOSIG RMK REG QNH 1018=
METAR LKTB 152200Z 01004KT CAVOK 15/12 Q1020 NOSIG RMK REG QNH 1018=
METAR LKVO NIL
METAR LOWI 152150Z AUTO VRB01KT 9999 NSC 16/14 Q1024=
METAR LOWL 152150Z AUTO 25003KT 240V310 9999 NSC 15/14 Q1022=
METAR LOWS 152150Z AUTO 16004KT 9999 NSC 16/15 Q1023=
METAR LOWW 152150Z 24006KT CAVOK 17/14 Q1020 TEMPO 28008KT=
METAR LZIB 152200Z 35002KT CAVOK 14/12 Q1020=
METAR LZKZ 152200Z 35004KT 9999 FEW005 11/08 Q1021=
METAR LZMC 152100Z 00000KT CAVOK 14/12 Q1021=
METAR LZPP 152200Z AUTO 36003KT 9999 NCD 12/10 Q1021=
METAR LZSL 152200Z 00000KT CAVOK 10/09 Q1021=
METAR LZTT 152200Z 25015KT CAVOK 12/07 Q1021=
METAR LZZI 152200Z VRB01KT CAVOK 10/09 Q1022=